This demonstration page uses our WeatherBlox Daily Observations layout. Learn more.

39.92423, -83.80882

Hourly Observations for September 30, 2020

Temp ( °F °C ) Dew Point ( °F °C ) Humidity (%) Winds ( mph kmh ) Pressure ( in mb ) Visibility ( mi km ) Precip ( " mm )
12:56 am 00:56 Cloudy 50 10 50 10 100 100 WSW 7 11 29.82 1010 10 16.0934 0 0
1:56 am 01:56 Partly Cloudy 49 9.4 49 9.4 100 100 SW 7 11 29.81 1010 10 16.0934 0.01 0.254
2:56 am 02:56 Clear 48 8.9 48 8.9 100 100 SW 7 11 29.8 1009 10 16.0934 0 0
3:56 am 03:56 Clear 46 7.8 46 7.8 100 100 SW 8 13 29.8 1009 10 16.0934 0 0
4:56 am 04:56 Mostly Cloudy 46 7.8 46 7.8 100 100 SW 7 11 29.8 1009 10 16.0934 0.01 0.254
5:56 am 05:56 Clear 46 7.8 46 7.8 100 100 SW 8 13 29.79 1009 10 16.0934 0 0
6:56 am 06:56 Clear 45 7.2 45 7.2 100 100 SW 9 15 29.8 1009 10 16.0934 0 0
7:56 am 07:56 Sunny 46 7.8 46 7.8 100 100 SSW 7 11 29.79 1009 10 16.0934 0 0
8:56 am 08:56 Mostly Sunny 49 9.4 49 9.4 100 100 SSW 10 17 29.78 1008 10 16.0934 0.01 0.254
9:56 am 09:56 Mostly Sunny 54 12.2 49 9.4 83 83 SW 13 20 29.79 1009 10 16.0934 0 0
10:56 am 10:56 Sunny 58 14.4 48 8.9 70 70 SSW 18 30 29.78 1008 10 16.0934 0 0
11:56 am 11:56 Mostly Cloudy 61 16.1 49 9.4 65 65 SSW 17 28 29.75 1007 10 16.0934 0 0
12:56 pm 12:56 Cloudy 63 17.2 48 8.9 58 58 SW 16 26 29.76 1008 10 16.0934 0 0
1:56 pm 13:56 Cloudy 64 17.8 48 8.9 56 56 SW 14 22 29.75 1008 10 16.0934 0 0
2:56 pm 14:56 Cloudy 64 17.8 49 9.4 58 58 SW 10 17 29.74 1007 10 16.0934 0 0
3:56 pm 15:56 Cloudy 64 17.8 49 9.4 58 58 SW 6 9 29.72 1007 10 16.0934 0.001 0.001
4:56 pm 16:56 Cloudy 65 18.3 51 10.6 61 61 SW 6 9 29.74 1007 10 16.0934 0.01 0.254
5:56 pm 17:56 Cloudy 63 17.2 53 11.7 70 70 Calm 29.76 1008 10 16.0934 0 0
6:56 pm 18:56 Cloudy 61 16.1 55 12.8 81 81 Calm 29.78 1008 10 16.0934 0.01 0.254
7:56 pm 19:56 Cloudy 64 17.8 50 10 60 60 NW 16 26 29.81 1010 10 16.0934 0 0
8:56 pm 20:56 Cloudy 62 16.7 43 6.1 50 50 WNW 14 22 29.84 1011 10 16.0934 0 0
9:56 pm 21:56 Clear 58 14.4 44 6.7 60 60 WNW 12 19 29.87 1011 10 16.0934 0 0
10:56 pm 22:56 Clear 55 12.8 45 7.2 69 69 NW 16 26 29.9 1013 10 16.0934 0.01 0.254
11:56 pm 23:56 Clear 52 11.1 42 5.6 69 69 NW 7 11 29.91 1013 10 16.0934 0 0

Powered by AerisWeather